Terminal Aerodrome Forecast
Issued by NWS Melbourne, FL

Home | Current Version | Previous Version | Text Only | Print | Product List | Glossary On
Versions: 1 2 3 4 5 6 7 8 9 10 11 12 13 14 15
000
FTUS42 KMLB 051127
TAFDAB
TAF
KDAB 051127Z 0512/0612 23005KT P6SM FEW030 FEW250
     FM051900 12008KT P6SM VCTS SCT035CB SCT250
     FM060000 17005KT P6SM SCT070 BKN250=

USA.gov is the U.S. government's official web portal to all federal, state and local government web resources and services.